createdAt,value
2022-11-28T00:01:45.051Z,2.87
2022-11-28T00:06:51.210Z,2.85
2022-11-28T00:11:54.141Z,2.80
2022-11-28T00:16:56.906Z,2.77
2022-11-28T00:21:59.808Z,2.77
2022-11-28T00:27:02.603Z,2.79
2022-11-28T00:32:06.246Z,2.75
2022-11-28T00:37:09.060Z,2.77
2022-11-28T00:42:11.911Z,2.80
2022-11-28T00:47:16.159Z,2.79
2022-11-28T00:52:18.953Z,2.80
2022-11-28T00:57:21.709Z,2.82
2022-11-28T01:02:24.648Z,2.82
2022-11-28T01:07:30.832Z,2.79
2022-11-28T01:12:33.692Z,2.80
2022-11-28T01:17:36.809Z,2.83
2022-11-28T01:22:39.911Z,2.83
2022-11-28T01:27:42.677Z,2.83
2022-11-28T01:32:45.461Z,2.84
2022-11-28T01:37:48.195Z,2.85
2022-11-28T01:42:51.050Z,2.85
2022-11-28T01:47:57.784Z,2.86
2022-11-28T01:53:04.528Z,2.91
2022-11-28T01:58:07.313Z,2.97
2022-11-28T02:03:17.856Z,2.99
2022-11-28T02:08:20.609Z,3.02
2022-11-28T02:13:49.185Z,3.06
2022-11-28T02:18:55.787Z,3.07
2022-11-28T02:24:11.935Z,3.07
2022-11-28T02:29:23.700Z,3.09
2022-11-28T02:34:32.629Z,3.12
2022-11-28T02:40:01.070Z,3.11
2022-11-28T02:45:13.177Z,3.13
2022-11-28T02:50:15.944Z,3.14
2022-11-28T02:55:20.389Z,3.14
2022-11-28T03:00:24.204Z,3.13
2022-11-28T03:05:46.429Z,3.12
2022-11-28T03:10:55.230Z,3.09
2022-11-28T03:16:17.891Z,3.06
2022-11-28T03:21:23.673Z,3.05
2022-11-28T03:26:51.279Z,3.02
2022-11-28T03:31:59.283Z,2.96
2022-11-28T03:37:08.747Z,2.92
2022-11-28T03:42:17.018Z,2.84
2022-11-28T03:47:20.310Z,2.77
2022-11-28T03:52:31.677Z,2.75
2022-11-28T03:58:13.304Z,2.73
2022-11-28T04:03:16.132Z,2.67
2022-11-28T04:08:25.229Z,2.58
2022-11-28T04:13:47.089Z,2.54
2022-11-28T04:19:25.534Z,2.44
2022-11-28T04:24:42.361Z,2.36
2022-11-28T04:29:47.883Z,2.36
2022-11-28T04:34:55.342Z,2.32
2022-11-28T04:40:00.578Z,2.29
2022-11-28T04:45:06.937Z,2.31
2022-11-28T04:50:10.462Z,2.30
2022-11-28T04:55:20.722Z,2.29
2022-11-28T05:00:23.463Z,2.29
2022-11-28T05:05:28.497Z,2.28
2022-11-28T05:10:31.300Z,2.25
2022-11-28T05:15:34.155Z,2.21
2022-11-28T05:20:38.454Z,2.21
2022-11-28T05:25:41.404Z,2.15
2022-11-28T05:30:44.169Z,2.04
2022-11-28T05:35:46.934Z,1.99
2022-11-28T05:40:49.735Z,1.96
2022-11-28T05:45:53.937Z,1.89
2022-11-28T05:50:56.705Z,1.85
2022-11-28T05:55:59.896Z,1.83
2022-11-28T06:01:18.115Z,1.85
2022-11-28T06:06:22.297Z,1.86
2022-11-28T06:11:27.321Z,1.79
2022-11-28T06:16:31.823Z,1.79
2022-11-28T06:21:34.943Z,1.81
2022-11-28T06:26:37.814Z,1.81
2022-11-28T06:31:40.724Z,1.80
2022-11-28T06:36:45.247Z,1.82
2022-11-28T06:41:48.526Z,1.85
2022-11-28T06:46:51.514Z,1.89
2022-11-28T06:51:54.384Z,1.90
2022-11-28T06:56:57.207Z,1.84
2022-11-28T07:02:07.778Z,1.79
2022-11-28T07:07:16.153Z,1.80
2022-11-28T07:12:19.584Z,1.83
2022-11-28T07:17:23.200Z,1.87
2022-11-28T07:22:26.123Z,1.90
2022-11-28T07:27:29.048Z,1.94
2022-11-28T07:32:31.894Z,1.89
2022-11-28T07:37:38.111Z,1.85
2022-11-28T07:42:45.372Z,1.88
2022-11-28T07:47:48.746Z,1.92
2022-11-28T07:52:52.248Z,2.12
2022-11-28T07:58:01.349Z,2.50
2022-11-28T08:03:18.092Z,2.86
2022-11-28T08:08:21.269Z,3.15
2022-11-28T08:13:24.069Z,3.25
2022-11-28T08:18:28.160Z,3.43
2022-11-28T08:23:33.578Z,3.60
2022-11-28T08:28:37.137Z,3.79
2022-11-28T08:33:40.843Z,3.85
2022-11-28T08:38:53.455Z,3.93
2022-11-28T08:44:06.234Z,3.88
2022-11-28T08:49:09.161Z,3.88
2022-11-28T08:54:12.594Z,3.91
2022-11-28T08:59:16.054Z,3.93
2022-11-28T09:04:18.982Z,4.01
2022-11-28T09:09:22.080Z,4.05
2022-11-28T09:14:27.089Z,4.15
2022-11-28T09:19:31.810Z,4.20
2022-11-28T09:24:34.736Z,4.25
2022-11-28T09:29:37.544Z,4.09
2022-11-28T09:34:40.457Z,4.03
2022-11-28T09:40:04.865Z,4.08
2022-11-28T09:45:26.841Z,4.08
2022-11-28T09:50:36.514Z,3.90
2022-11-28T09:55:48.316Z,3.88
2022-11-28T10:01:05.623Z,3.95
2022-11-28T10:06:23.491Z,4.28
2022-11-28T10:11:50.620Z,4.61
2022-11-28T10:17:04.378Z,4.80
2022-11-28T10:22:13.628Z,5.06
2022-11-28T10:27:21.291Z,5.27
2022-11-28T10:32:40.675Z,5.41
2022-11-28T10:37:45.777Z,5.51
2022-11-28T10:42:52.091Z,5.47
2022-11-28T10:48:07.429Z,5.39
2022-11-28T10:53:29.923Z,5.20
2022-11-28T10:58:37.316Z,5.22
2022-11-28T11:03:41.065Z,5.29
2022-11-28T11:08:45.698Z,5.22
2022-11-28T11:14:07.106Z,5.15
2022-11-28T11:19:23.579Z,5.18
2022-11-28T11:24:26.722Z,5.20
2022-11-28T11:29:32.870Z,5.20
2022-11-28T11:34:43.124Z,5.30
2022-11-28T11:39:52.249Z,5.34
2022-11-28T11:44:56.548Z,5.29
2022-11-28T11:50:05.452Z,5.29
2022-11-28T11:55:16.859Z,5.31
2022-11-28T12:00:27.785Z,5.35
2022-11-28T12:05:59.375Z,5.38
2022-11-28T12:11:23.620Z,5.43
2022-11-28T12:16:52.308Z,5.36
2022-11-28T12:22:32.041Z,5.38
2022-11-28T12:27:52.710Z,5.33
2022-11-28T12:33:13.954Z,5.12
2022-11-28T12:38:31.322Z,4.94
2022-11-28T12:43:53.019Z,4.82
2022-11-28T12:49:25.826Z,4.93
2022-11-28T12:55:01.485Z,5.00
2022-11-28T13:00:09.564Z,5.08
2022-11-28T13:05:31.644Z,5.05
2022-11-28T13:11:18.716Z,5.06
2022-11-28T13:16:49.184Z,5.04
2022-11-28T13:22:23.673Z,5.11
2022-11-28T13:28:00.976Z,5.22
2022-11-28T13:33:28.418Z,5.24
2022-11-28T13:39:13.403Z,5.22
2022-11-28T13:44:24.366Z,5.27
2022-11-28T13:49:29.770Z,5.36
2022-11-28T13:54:32.731Z,5.29
2022-11-28T13:59:37.289Z,4.89
2022-11-28T14:04:44.437Z,4.38
2022-11-28T14:09:53.791Z,3.96
2022-11-28T14:15:22.732Z,3.67
2022-11-28T14:20:43.052Z,3.45
2022-11-28T14:25:48.666Z,3.28
2022-11-28T14:31:00.216Z,3.14
2022-11-28T14:36:29.632Z,3.01
2022-11-28T14:41:32.696Z,2.94
2022-11-28T14:46:35.829Z,2.89
2022-11-28T14:51:47.977Z,2.85
2022-11-28T14:56:56.675Z,2.82
2022-11-28T15:02:11.207Z,2.84
2022-11-28T15:07:59.636Z,2.82
2022-11-28T15:13:05.322Z,2.82
2022-11-28T15:18:11.582Z,2.80
2022-11-28T15:23:25.714Z,2.76
2022-11-28T15:28:32.335Z,2.74
2022-11-28T15:33:35.233Z,2.72
2022-11-28T15:38:42.088Z,2.66
2022-11-28T15:43:45.947Z,2.62
2022-11-28T15:48:51.262Z,2.58
2022-11-28T15:53:55.406Z,2.52
2022-11-28T15:58:58.220Z,2.47
2022-11-28T16:04:15.503Z,2.49
2022-11-28T16:09:18.294Z,2.49
2022-11-28T16:14:27.206Z,2.48
2022-11-28T16:19:34.698Z,2.50
2022-11-28T16:24:55.575Z,2.49
2022-11-28T16:29:58.617Z,2.48
2022-11-28T16:35:03.451Z,2.49
2022-11-28T16:40:06.738Z,2.47
2022-11-28T16:45:20.715Z,2.48
2022-11-28T16:50:25.357Z,2.52
2022-11-28T16:55:32.363Z,2.56
2022-11-28T17:00:35.795Z,2.59
2022-11-28T17:05:38.629Z,2.56
2022-11-28T17:10:41.644Z,2.52
2022-11-28T17:15:44.592Z,2.51
2022-11-28T17:20:47.718Z,2.53
2022-11-28T17:25:53.234Z,2.56
2022-11-28T17:30:56.115Z,2.60
2022-11-28T17:36:00.478Z,2.65
2022-11-28T17:41:03.560Z,2.64
2022-11-28T17:46:06.633Z,2.65
2022-11-28T17:51:10.577Z,2.65
2022-11-28T17:56:13.700Z,2.69
2022-11-28T18:01:26.889Z,2.75
2022-11-28T18:06:30.074Z,2.80
2022-11-28T18:11:33.024Z,2.85
2022-11-28T18:16:36.241Z,2.91
2022-11-28T18:21:39.380Z,2.90
2022-11-28T18:26:42.202Z,2.89
2022-11-28T18:31:45.181Z,2.91
2022-11-28T18:36:47.988Z,2.90
2022-11-28T18:41:50.919Z,2.89
2022-11-28T18:46:53.749Z,2.92
2022-11-28T18:51:57.056Z,2.93
2022-11-28T18:57:00.222Z,2.91
2022-11-28T19:02:03.191Z,2.90
2022-11-28T19:07:06.075Z,2.90
2022-11-28T19:12:08.868Z,2.91
2022-11-28T19:17:12.267Z,2.92
2022-11-28T19:22:15.040Z,2.90
2022-11-28T19:27:18.001Z,2.87
2022-11-28T19:32:21.346Z,2.84
2022-11-28T19:37:24.209Z,2.80
2022-11-28T19:42:27.183Z,2.75
2022-11-28T19:47:29.989Z,2.73
2022-11-28T19:52:32.966Z,2.73
2022-11-28T19:57:37.420Z,2.73
2022-11-28T20:02:40.436Z,2.72
2022-11-28T20:07:43.582Z,2.69
2022-11-28T20:12:46.385Z,2.68
2022-11-28T20:17:49.377Z,2.69
2022-11-28T20:22:52.340Z,2.65
2022-11-28T20:27:55.229Z,2.68
2022-11-28T20:32:58.037Z,2.69
2022-11-28T20:38:00.784Z,2.68
2022-11-28T20:43:03.547Z,2.65
2022-11-28T20:48:06.396Z,2.60
2022-11-28T20:53:09.208Z,2.57
2022-11-28T20:58:12.109Z,2.57
2022-11-28T21:03:14.903Z,2.57
2022-11-28T21:08:17.756Z,2.59
2022-11-28T21:13:20.489Z,2.61
2022-11-28T21:18:23.291Z,2.61
2022-11-28T21:23:26.336Z,2.57
2022-11-28T21:28:29.136Z,2.55
2022-11-28T21:33:32.049Z,2.54
2022-11-28T21:38:35.610Z,2.53
2022-11-28T21:43:39.226Z,2.52
2022-11-28T21:48:42.397Z,2.49
2022-11-28T21:53:45.591Z,2.46
2022-11-28T21:58:48.422Z,2.48
2022-11-28T22:03:51.319Z,2.45
2022-11-28T22:08:54.784Z,2.41
2022-11-28T22:13:57.632Z,2.39
2022-11-28T22:19:00.836Z,2.37
2022-11-28T22:24:04.038Z,2.35
2022-11-28T22:29:07.144Z,2.34
2022-11-28T22:34:10.259Z,2.36
2022-11-28T22:39:13.464Z,2.33
2022-11-28T22:44:16.419Z,2.33
2022-11-28T22:49:24.663Z,2.32
2022-11-28T22:54:27.485Z,2.28
2022-11-28T22:59:34.161Z,2.31
2022-11-28T23:04:38.494Z,2.27
2022-11-28T23:09:41.951Z,2.23
2022-11-28T23:14:48.888Z,2.23
2022-11-28T23:19:51.900Z,2.19
2022-11-28T23:24:54.678Z,2.17
2022-11-28T23:29:57.603Z,2.17
2022-11-28T23:35:01.183Z,2.10
2022-11-28T23:40:04.307Z,2.05
2022-11-28T23:45:07.904Z,2.07
2022-11-28T23:50:10.953Z,2.06
2022-11-28T23:55:13.725Z,2.03
